Time;durP1;ratioP1;P1;durP2;ratioP2;P2;SDS_P1;SDS_P2;PMS_P1;PMS_P2;Temp;Humidity;BMP_temperature;BMP_pressure;BME280_temperature;BME280_humidity;BME280_pressure;Samples;Min_cycle;Max_cycle;Signal;HPM_P1;HPM_P2
2021/04/08 00:00:43;;;;;;;3.40;3.05;;;6.10;65.20;;;;;;5092617;28;20024;-70
2021/04/08 00:03:08;;;;;;;3.58;2.80;;;6.10;65.30;;;;;;5077208;28;20089;-70
2021/04/08 00:05:34;;;;;;;2.58;2.30;;;6.10;65.50;;;;;;5072545;28;20035;-71
2021/04/08 00:08:00;;;;;;;4.28;2.97;;;6.10;65.80;;;;;;5085636;28;20038;-71
2021/04/08 00:10:26;;;;;;;2.88;2.60;;;6.10;65.80;;;;;;5092848;28;20035;-70
2021/04/08 00:12:52;;;;;;;4.40;3.13;;;6.10;66.00;;;;;;5093005;28;20030;-71
2021/04/08 00:15:18;;;;;;;6.95;3.35;;;6.00;66.00;;;;;;5092399;28;20016;-70
2021/04/08 00:17:44;;;;;;;2.72;2.40;;;6.00;66.00;;;;;;5076478;28;20056;-71
2021/04/08 00:20:21;;;;;;;3.97;3.00;;;6.00;66.20;;;;;;5054800;28;20024;-71
2021/04/08 00:22:48;;;;;;;3.65;2.50;;;6.00;66.30;;;;;;5087857;28;20524;-70
2021/04/08 00:25:16;;;;;;;3.60;3.15;;;6.00;66.50;;;;;;5074846;28;20038;-71
2021/04/08 00:27:43;;;;;;;5.05;3.10;;;6.00;66.40;;;;;;5092826;28;20020;-70
2021/04/08 00:30:09;;;;;;;4.85;2.42;;;6.00;66.60;;;;;;5074653;28;20020;-71
2021/04/08 00:32:35;;;;;;;3.33;2.90;;;6.00;66.60;;;;;;5076760;28;20050;-71
2021/04/08 00:35:01;;;;;;;3.35;2.55;;;6.00;66.60;;;;;;5091239;28;20054;-71
2021/04/08 00:37:27;;;;;;;4.13;2.67;;;6.00;66.70;;;;;;5092832;28;20028;-72
2021/04/08 00:39:53;;;;;;;3.65;2.70;;;6.00;66.80;;;;;;5074676;28;20041;-71
2021/04/08 00:42:20;;;;;;;3.95;2.88;;;6.00;66.90;;;;;;5092842;28;20020;-70
2021/04/08 00:44:46;;;;;;;2.80;2.42;;;6.00;66.90;;;;;;5092760;28;20024;-71
2021/04/08 00:47:11;;;;;;;5.00;2.90;;;6.00;66.90;;;;;;5092365;28;20515;-72
2021/04/08 00:49:37;;;;;;;4.22;2.80;;;6.00;66.80;;;;;;5074341;28;20397;-71
2021/04/08 00:52:03;;;;;;;4.05;3.00;;;6.00;66.80;;;;;;5078030;28;20025;-72
2021/04/08 00:54:29;;;;;;;3.75;2.90;;;6.00;66.70;;;;;;5054371;28;20491;-72
2021/04/08 00:56:55;;;;;;;5.18;3.60;;;6.00;67.30;;;;;;5072383;28;20055;-71
2021/04/08 00:59:21;;;;;;;5.35;3.65;;;6.00;66.30;;;;;;5073960;28;20024;-70
2021/04/08 01:01:47;;;;;;;5.25;3.90;;;6.00;66.20;;;;;;5076007;28;20025;-71
2021/04/08 01:04:13;;;;;;;4.65;3.42;;;6.00;66.40;;;;;;5094379;28;20031;-71
2021/04/08 01:06:38;;;;;;;4.18;3.20;;;6.00;66.50;;;;;;5095517;28;20016;-70
2021/04/08 01:09:05;;;;;;;5.47;3.75;;;6.00;66.50;;;;;;5096060;28;20070;-71
2021/04/08 01:11:31;;;;;;;5.00;3.42;;;6.00;66.50;;;;;;5095720;28;20031;-71
2021/04/08 01:13:57;;;;;;;5.65;3.72;;;6.00;66.60;;;;;;5077405;28;20024;-71
2021/04/08 01:16:36;;;;;;;5.18;3.25;;;6.00;66.60;;;;;;5094920;28;20107;-70
2021/04/08 01:19:17;;;;;;;3.92;3.08;;;6.00;66.70;;;;;;5096065;28;20020;-71
2021/04/08 01:21:50;;;;;;;3.95;3.17;;;6.00;66.40;;;;;;5077754;28;20031;-71
2021/04/08 01:24:31;;;;;;;8.25;3.70;;;6.00;66.10;;;;;;5087490;28;20074;-70
2021/04/08 01:27:11;;;;;;;6.95;4.15;;;6.00;66.00;;;;;;5075616;28;20539;-70
2021/04/08 01:29:55;;;;;;;7.28;3.95;;;6.00;66.10;;;;;;5075488;28;20032;-71
2021/04/08 01:32:25;;;;;;;6.20;3.95;;;6.00;66.10;;;;;;5075605;28;20024;-71
2021/04/08 01:34:53;;;;;;;8.27;3.88;;;6.00;66.10;;;;;;5075491;28;20082;-71
2021/04/08 01:37:30;;;;;;;6.45;4.28;;;6.00;66.00;;;;;;5082585;28;20020;-71
2021/04/08 01:39:58;;;;;;;5.90;3.88;;;6.00;66.00;;;;;;5095290;28;20477;-71
2021/04/08 01:42:25;;;;;;;6.85;3.75;;;6.00;66.00;;;;;;5095561;28;20028;-70
2021/04/08 01:44:54;;;;;;;6.90;3.63;;;6.00;66.00;;;;;;5077239;28;20024;-71
2021/04/08 01:47:21;;;;;;;7.38;4.45;;;6.00;66.00;;;;;;5095381;28;20545;-70
2021/04/08 01:49:48;;;;;;;8.35;4.40;;;6.00;65.90;;;;;;5095086;28;20040;-71
2021/04/08 01:52:15;;;;;;;7.55;4.30;;;6.00;65.50;;;;;;5095309;28;20021;-70
2021/04/08 01:54:49;;;;;;;5.65;4.10;;;6.00;65.30;;;;;;5094727;28;20020;-70
2021/04/08 01:57:16;;;;;;;9.10;4.30;;;6.00;65.40;;;;;;5095254;28;20377;-70
2021/04/08 01:59:43;;;;;;;6.63;4.57;;;6.00;65.30;;;;;;5095175;28;20053;-71
2021/04/08 02:02:12;;;;;;;6.20;4.43;;;6.10;65.40;;;;;;5080190;28;20081;-71
2021/04/08 02:04:39;;;;;;;6.55;4.40;;;6.10;65.50;;;;;;5057072;28;20505;-70
2021/04/08 02:07:07;;;;;;;8.10;4.88;;;6.10;65.50;;;;;;5094366;28;20026;-71
2021/04/08 02:09:36;;;;;;;8.18;4.63;;;6.10;65.30;;;;;;5094577;28;20028;-71
2021/04/08 02:12:03;;;;;;;6.43;4.22;;;6.10;65.00;;;;;;5094954;28;20047;-70
2021/04/08 02:14:29;;;;;;;16.75;4.50;;;6.10;64.90;;;;;;5094885;28;20024;-70
2021/04/08 02:16:57;;;;;;;9.23;4.72;;;6.10;64.80;;;;;;5094858;28;20091;-71
2021/04/08 02:19:24;;;;;;;4.25;3.33;;;6.10;64.90;;;;;;5076657;28;20020;-71
2021/04/08 02:21:52;;;;;;;9.57;4.10;;;6.20;64.90;;;;;;5094736;28;20027;-71
2021/04/08 02:24:20;;;;;;;7.05;4.38;;;6.20;64.80;;;;;;5094311;28;20031;-71
2021/04/08 02:26:46;;;;;;;8.02;4.57;;;6.20;64.90;;;;;;5085977;28;20095;-71
2021/04/08 02:29:14;;;;;;;5.93;3.88;;;6.20;64.80;;;;;;5094592;28;20016;-70
2021/04/08 02:31:42;;;;;;;6.25;3.83;;;6.20;64.80;;;;;;5094472;28;20032;-70
2021/04/08 02:34:09;;;;;;;6.47;4.28;;;6.20;64.70;;;;;;5094510;28;20039;-70
2021/04/08 02:36:38;;;;;;;6.10;3.85;;;6.20;64.60;;;;;;5076340;28;20473;-71
2021/04/08 02:39:13;;;;;;;10.30;4.70;;;6.20;64.40;;;;;;5094411;28;20384;-70
2021/04/08 02:41:46;;;;;;;6.25;3.75;;;6.20;64.20;;;;;;5094388;28;20089;-71
2021/04/08 02:44:13;;;;;;;4.97;3.40;;;6.20;64.00;;;;;;5094391;28;20024;-71
2021/04/08 02:46:40;;;;;;;4.60;3.67;;;6.20;64.00;;;;;;5094233;28;20426;-72
2021/04/08 02:49:06;;;;;;;4.22;3.50;;;6.20;64.30;;;;;;5094052;28;20513;-69
2021/04/08 02:51:42;;;;;;;5.45;3.45;;;6.20;64.40;;;;;;5075876;28;20064;-69
2021/04/08 02:54:15;;;;;;;5.15;3.58;;;6.20;64.60;;;;;;5093679;28;20031;-70
2021/04/08 02:56:43;;;;;;;5.57;3.90;;;6.30;64.60;;;;;;5078635;28;20028;-69
2021/04/08 02:59:39;;;;;;;6.07;3.72;;;6.30;64.30;;;;;;5073777;28;20016;-70
2021/04/08 03:02:09;;;;;;;9.50;4.47;;;6.30;63.90;;;;;;5073689;28;20029;-68
2021/04/08 03:04:42;;;;;;;8.52;4.18;;;6.20;63.60;;;;;;5073645;28;20024;-67
2021/04/08 03:07:10;;;;;;;5.40;2.80;;;6.10;63.50;;;;;;5073687;28;20459;-67
2021/04/08 03:09:39;;;;;;;7.43;4.15;;;6.00;63.60;;;;;;5073467;28;20035;-66
2021/04/08 03:12:07;;;;;;;4.75;3.50;;;5.90;63.80;;;;;;5073469;28;20045;-67
2021/04/08 03:14:37;;;;;;;5.82;3.58;;;5.80;64.20;;;;;;5073429;28;20032;-69
2021/04/08 03:17:05;;;;;;;7.25;4.03;;;5.80;64.50;;;;;;5076401;28;20074;-70
2021/04/08 03:19:34;;;;;;;5.22;3.33;;;5.60;64.60;;;;;;5092516;28;20024;-71
2021/04/08 03:22:02;;;;;;;6.22;3.25;;;5.60;64.90;;;;;;5061040;28;20025;-70
2021/04/08 03:24:29;;;;;;;13.48;3.50;;;5.60;65.10;;;;;;5082280;28;20031;-69
2021/04/08 03:26:57;;;;;;;4.13;3.08;;;5.50;65.30;;;;;;5089336;28;20025;-69
2021/04/08 03:29:24;;;;;;;3.75;2.83;;;5.40;65.70;;;;;;5073118;28;20470;-69
2021/04/08 03:31:50;;;;;;;6.60;3.05;;;5.40;66.80;;;;;;5073138;28;20024;-70
2021/04/08 03:34:16;;;;;;;6.28;3.20;;;5.40;66.40;;;;;;5055182;28;20159;-69
2021/04/08 03:36:43;;;;;;;5.18;3.25;;;5.30;66.50;;;;;;5073030;28;20017;-70
2021/04/08 03:39:10;;;;;;;4.65;3.42;;;5.30;66.90;;;;;;5073404;28;20032;-69
2021/04/08 03:41:40;;;;;;;6.93;3.05;;;5.30;67.20;;;;;;5072960;28;20056;-69
2021/04/08 03:44:08;;;;;;;4.43;3.13;;;5.30;67.50;;;;;;5055038;28;20389;-69
2021/04/08 03:46:38;;;;;;;4.53;2.92;;;5.30;67.70;;;;;;5085116;28;20112;-70
2021/04/08 03:49:10;;;;;;;3.92;2.92;;;5.30;67.90;;;;;;5093168;28;20064;-70
2021/04/08 03:51:38;;;;;;;5.40;3.40;;;5.40;68.00;;;;;;5093253;28;20143;-71
2021/04/08 03:54:08;;;;;;;5.60;3.65;;;5.40;68.20;;;;;;5092646;28;20027;-70
2021/04/08 03:56:37;;;;;;;9.63;4.35;;;5.50;68.30;;;;;;5093007;28;20466;-70
2021/04/08 03:59:07;;;;;;;5.55;4.00;;;5.50;68.30;;;;;;5093030;28;20363;-70
2021/04/08 04:01:37;;;;;;;6.65;4.20;;;5.50;68.40;;;;;;5093066;28;20024;-70
2021/04/08 04:04:11;;;;;;;6.28;4.60;;;5.60;68.30;;;;;;5092838;28;20031;-70
2021/04/08 04:06:41;;;;;;;6.13;4.22;;;5.60;68.30;;;;;;5092949;28;20058;-70
2021/04/08 04:09:12;;;;;;;10.10;5.00;;;5.70;68.20;;;;;;5082595;28;20094;-71
2021/04/08 04:11:39;;;;;;;5.50;4.25;;;5.70;68.10;;;;;;5072835;28;20044;-70
2021/04/08 04:14:08;;;;;;;6.68;4.10;;;5.70;68.00;;;;;;5054855;28;20024;-70
2021/04/08 04:16:39;;;;;;;6.45;4.63;;;5.70;67.90;;;;;;5072656;28;20497;-70
2021/04/08 04:19:05;;;;;;;10.02;4.55;;;5.70;67.80;;;;;;5072722;28;20032;-72
2021/04/08 04:21:32;;;;;;;7.25;4.80;;;5.80;67.90;;;;;;5072636;28;20032;-69
2021/04/08 04:23:58;;;;;;;7.00;4.80;;;5.80;67.70;;;;;;5076479;28;20481;-69
2021/04/08 04:26:24;;;;;;;6.70;4.75;;;5.80;67.60;;;;;;5092871;28;20039;-69
2021/04/08 04:28:50;;;;;;;5.68;4.07;;;5.80;67.50;;;;;;5092710;28;20040;-69
2021/04/08 04:31:15;;;;;;;6.00;4.68;;;5.80;67.50;;;;;;5072197;28;20044;-70
2021/04/08 04:33:41;;;;;;;8.00;4.82;;;5.80;67.20;;;;;;5076228;28;20100;-69
2021/04/08 04:36:07;;;;;;;7.45;4.70;;;5.80;67.20;;;;;;5076301;28;20031;-71
2021/04/08 04:38:33;;;;;;;7.05;4.22;;;5.80;67.10;;;;;;5076354;28;20021;-70
2021/04/08 04:40:59;;;;;;;8.55;4.75;;;5.80;67.00;;;;;;5058408;28;20028;-70
2021/04/08 04:43:25;;;;;;;10.85;4.68;;;5.80;67.00;;;;;;5076248;28;20103;-70
2021/04/08 04:45:51;;;;;;;9.93;4.80;;;5.80;67.00;;;;;;5076049;28;20032;-70
2021/04/08 04:48:16;;;;;;;8.13;4.32;;;5.80;66.80;;;;;;5075934;28;20055;-69
2021/04/08 04:50:43;;;;;;;9.98;4.78;;;5.80;66.80;;;;;;5076423;28;20064;-70
2021/04/08 04:53:08;;;;;;;7.32;4.40;;;5.80;66.80;;;;;;5083273;28;20089;-71
2021/04/08 04:55:34;;;;;;;6.65;4.32;;;5.80;66.70;;;;;;5089026;28;20066;-72
2021/04/08 04:58:00;;;;;;;10.88;4.70;;;5.80;66.80;;;;;;5094985;28;20425;-71
2021/04/08 05:00:25;;;;;;;7.22;4.38;;;5.80;66.70;;;;;;5095472;28;20028;-71
2021/04/08 05:02:51;;;;;;;9.18;4.03;;;5.80;66.70;;;;;;5088384;28;20082;-71
2021/04/08 05:05:17;;;;;;;11.68;4.95;;;5.80;66.60;;;;;;5088757;28;20393;-70
2021/04/08 05:07:44;;;;;;;6.65;4.32;;;5.80;66.50;;;;;;5079704;28;20016;-70
2021/04/08 05:10:11;;;;;;;7.47;4.68;;;5.80;66.30;;;;;;5087291;28;20691;-70
2021/04/08 05:12:37;;;;;;;6.00;4.13;;;5.80;66.30;;;;;;5082728;28;20485;-71
2021/04/08 05:15:04;;;;;;;9.38;4.82;;;5.80;66.10;;;;;;5090296;28;20078;-71
2021/04/08 05:17:29;;;;;;;6.38;4.47;;;5.80;66.20;;;;;;5088145;28;20024;-70
2021/04/08 05:19:57;;;;;;;7.72;4.97;;;5.90;66.40;;;;;;5069450;28;20028;-71
2021/04/08 05:22:23;;;;;;;7.13;4.20;;;5.80;66.00;;;;;;5094153;28;20020;-70
2021/04/08 05:24:49;;;;;;;10.60;4.68;;;5.80;65.70;;;;;;5068942;28;20028;-71
2021/04/08 05:27:15;;;;;;;7.05;4.57;;;5.80;65.70;;;;;;5095025;28;20080;-70
2021/04/08 05:29:40;;;;;;;8.52;4.35;;;5.80;65.70;;;;;;5075143;28;20040;-70
2021/04/08 05:32:07;;;;;;;9.93;5.10;;;5.90;65.90;;;;;;5075182;28;20024;-70
2021/04/08 05:34:33;;;;;;;7.82;4.72;;;5.90;66.10;;;;;;5075646;28;20070;-70
2021/04/08 05:36:58;;;;;;;11.43;4.63;;;5.90;65.70;;;;;;5086375;28;20028;-70
2021/04/08 05:39:24;;;;;;;9.63;5.13;;;5.90;65.60;;;;;;5081373;28;20024;-71
2021/04/08 05:41:50;;;;;;;8.27;4.75;;;6.00;65.70;;;;;;5095124;28;20059;-70
2021/04/08 05:44:16;;;;;;;7.68;5.03;;;6.00;65.50;;;;;;5083316;28;20042;-70
2021/04/08 05:46:41;;;;;;;7.70;4.72;;;6.00;64.70;;;;;;5095065;28;20024;-70
2021/04/08 05:49:07;;;;;;;7.72;4.93;;;6.00;64.60;;;;;;5094266;28;20036;-71
2021/04/08 05:51:33;;;;;;;8.82;4.93;;;6.10;64.60;;;;;;5076549;28;20024;-71
2021/04/08 05:54:00;;;;;;;6.97;4.50;;;6.10;64.60;;;;;;5094715;28;20032;-70
2021/04/08 05:56:26;;;;;;;10.38;5.32;;;6.20;65.10;;;;;;5083621;28;20436;-71
2021/04/08 05:58:52;;;;;;;8.35;4.80;;;6.20;64.80;;;;;;5070855;28;20044;-72
2021/04/08 06:01:18;;;;;;;8.10;4.80;;;6.30;64.40;;;;;;5081093;28;20052;-71
2021/04/08 06:03:44;;;;;;;6.43;4.05;;;6.40;64.40;;;;;;5085974;28;20104;-71
2021/04/08 06:06:10;;;;;;;6.47;4.55;;;6.40;64.20;;;;;;5078880;28;20387;-71
2021/04/08 06:08:36;;;;;;;7.45;4.03;;;6.50;63.70;;;;;;5079709;28;20036;-71
2021/04/08 06:11:02;;;;;;;6.30;3.60;;;6.50;63.20;;;;;;5069718;28;20385;-70
2021/04/08 06:13:28;;;;;;;5.85;3.55;;;6.60;63.40;;;;;;5056315;28;20069;-72
2021/04/08 06:15:53;;;;;;;10.80;4.90;;;6.70;63.80;;;;;;5091701;28;20381;-71
2021/04/08 06:18:20;;;;;;;4.72;3.40;;;6.70;63.50;;;;;;5088137;28;20074;-71
2021/04/08 06:20:46;;;;;;;7.57;3.65;;;6.80;63.20;;;;;;5067431;28;20086;-70
2021/04/08 06:23:12;;;;;;;8.35;4.45;;;6.80;62.90;;;;;;5075352;28;20575;-69
2021/04/08 06:25:38;;;;;;;6.07;3.63;;;6.90;62.60;;;;;;5092916;28;20020;-70
2021/04/08 06:28:04;;;;;;;6.40;3.83;;;7.00;62.30;;;;;;5059947;28;20037;-70
2021/04/08 06:30:29;;;;;;;7.47;3.80;;;7.00;61.90;;;;;;5073357;28;20031;-70
2021/04/08 06:32:56;;;;;;;6.93;3.95;;;7.00;62.30;;;;;;5055392;28;20031;-69
2021/04/08 06:35:23;;;;;;;7.38;3.92;;;7.00;61.50;;;;;;5073216;28;20029;-70
2021/04/08 06:37:52;;;;;;;7.68;4.07;;;7.00;61.80;;;;;;5073538;28;20043;-70
2021/04/08 06:40:20;;;;;;;7.93;4.07;;;7.00;61.80;;;;;;5090794;28;20016;-71
2021/04/08 06:42:46;;;;;;;5.28;3.67;;;7.00;61.30;;;;;;5093239;28;20032;-69
2021/04/08 06:45:13;;;;;;;6.72;3.90;;;7.00;61.40;;;;;;5093494;28;20020;-71
2021/04/08 06:47:44;;;;;;;4.45;3.42;;;7.00;61.70;;;;;;5056197;28;20031;-71
2021/04/08 06:50:11;;;;;;;4.93;3.42;;;7.00;61.50;;;;;;5072879;28;20131;-71
2021/04/08 06:52:38;;;;;;;6.60;3.60;;;7.10;61.20;;;;;;5073035;28;20074;-71
2021/04/08 06:55:05;;;;;;;5.32;3.22;;;7.10;60.80;;;;;;5083804;28;20028;-71
2021/04/08 06:57:31;;;;;;;5.50;3.30;;;7.20;61.40;;;;;;5088271;28;20364;-71
2021/04/08 07:00:01;;;;;;;8.55;3.95;;;7.30;62.00;;;;;;5086946;28;20402;-69
2021/04/08 07:02:28;;;;;;;5.55;3.08;;;7.40;61.70;;;;;;5073464;28;20023;-70
2021/04/08 07:04:55;;;;;;;5.88;3.83;;;7.50;61.50;;;;;;5093043;28;20422;-71
2021/04/08 07:07:21;;;;;;;4.05;3.05;;;7.50;60.40;;;;;;5058342;28;20052;-69
2021/04/08 07:09:49;;;;;;;5.30;3.58;;;7.60;60.60;;;;;;5054579;28;20031;-71
2021/04/08 07:12:15;;;;;;;8.35;3.90;;;7.70;61.00;;;;;;5072540;28;20501;-70
2021/04/08 07:14:41;;;;;;;4.68;3.20;;;7.80;60.90;;;;;;5065551;28;20033;-71
2021/04/08 07:17:10;;;;;;;6.40;3.72;;;7.80;60.30;;;;;;5091376;28;20024;-71
2021/04/08 07:19:38;;;;;;;4.50;3.55;;;7.80;60.00;;;;;;5092768;28;20429;-71
2021/04/08 07:22:04;;;;;;;5.63;3.17;;;7.80;59.90;;;;;;5074342;28;20024;-70
2021/04/08 07:24:44;;;;;;;5.35;3.42;;;7.90;60.20;;;;;;5092146;28;20039;-70
2021/04/08 07:27:16;;;;;;;6.88;3.80;;;7.90;59.80;;;;;;5073813;28;20107;-70
2021/04/08 07:29:44;;;;;;;7.75;3.95;;;8.00;60.00;;;;;;5072738;28;20020;-70
2021/04/08 07:32:18;;;;;;;8.93;4.57;;;8.10;60.10;;;;;;5072314;28;20031;-70
2021/04/08 07:34:50;;;;;;;7.68;3.92;;;8.20;60.90;;;;;;5072741;28;20025;-69
2021/04/08 07:37:30;;;;;;;7.15;3.80;;;8.40;60.50;;;;;;5072549;28;20449;-69
2021/04/08 07:39:57;;;;;;;6.13;3.30;;;8.50;60.90;;;;;;5081796;28;20432;-70
2021/04/08 07:42:32;;;;;;;10.40;4.30;;;8.70;61.20;;;;;;5076744;28;20028;-71
2021/04/08 07:45:04;;;;;;;8.10;4.32;;;8.80;60.30;;;;;;5078536;28;20554;-69
2021/04/08 07:47:31;;;;;;;7.30;4.55;;;8.90;59.60;;;;;;5092367;28;20039;-70
2021/04/08 07:50:05;;;;;;;8.05;4.30;;;9.00;58.90;;;;;;5092157;28;20044;-69
2021/04/08 07:52:42;;;;;;;14.60;5.18;;;9.10;57.90;;;;;;5080240;28;20513;-69
2021/04/08 07:55:15;;;;;;;9.85;4.78;;;9.10;57.30;;;;;;5071884;28;20024;-69
2021/04/08 07:57:53;;;;;;;6.95;4.50;;;9.10;57.20;;;;;;5054111;28;20094;-69
2021/04/08 08:00:35;;;;;;;9.77;5.50;;;8.90;56.30;;;;;;5066771;28;20432;-69
2021/04/08 08:03:06;;;;;;;7.97;4.68;;;8.70;56.40;;;;;;5072283;28;20025;-69
2021/04/08 08:05:36;;;;;;;9.20;5.28;;;8.60;56.20;;;;;;5072384;28;20036;-69
2021/04/08 08:08:08;;;;;;;10.52;5.93;;;8.40;56.30;;;;;;5074962;28;20028;-70
2021/04/08 08:10:35;;;;;;;9.30;5.80;;;8.30;56.90;;;;;;5080626;28;20747;-69
2021/04/08 08:13:01;;;;;;;9.88;6.55;;;8.30;57.00;;;;;;5095946;28;20024;-69
2021/04/08 08:15:28;;;;;;;12.05;5.82;;;8.30;57.40;;;;;;5082971;28;20091;-70
2021/04/08 08:17:56;;;;;;;10.68;5.45;;;8.30;57.50;;;;;;5096312;28;20287;-69
2021/04/08 08:20:23;;;;;;;9.40;4.93;;;8.30;57.50;;;;;;5085585;28;20532;-69
2021/04/08 08:22:49;;;;;;;7.90;4.82;;;8.30;58.10;;;;;;5075975;28;20040;-69
2021/04/08 08:25:23;;;;;;;7.25;5.03;;;8.40;59.10;;;;;;5076195;28;20028;-69
2021/04/08 08:27:50;;;;;;;11.97;5.03;;;8.50;58.60;;;;;;5057958;28;20031;-69
2021/04/08 08:30:22;;;;;;;8.85;5.25;;;8.70;59.10;;;;;;5075925;28;20032;-70
2021/04/08 08:33:13;;;;;;;6.72;5.10;;;8.80;59.10;;;;;;5083133;28;20545;-69
2021/04/08 08:35:39;;;;;;;9.52;4.95;;;8.90;58.10;;;;;;5086836;28;20036;-69
2021/04/08 08:38:18;;;;;;;10.45;5.32;;;9.00;57.00;;;;;;5075522;28;20020;-69
2021/04/08 08:40:56;;;;;;;9.40;5.28;;;9.00;56.20;;;;;;5079111;28;20021;-69
2021/04/08 08:43:22;;;;;;;7.43;5.22;;;9.00;55.00;;;;;;5075346;28;20126;-69
2021/04/08 08:45:48;;;;;;;6.45;4.10;;;9.00;55.30;;;;;;5075911;28;20032;-69
2021/04/08 08:48:19;;;;;;;6.53;4.43;;;8.90;55.50;;;;;;5093239;28;20020;-69
2021/04/08 08:50:48;;;;;;;8.13;5.43;;;8.90;55.30;;;;;;5065845;28;20043;-69
2021/04/08 08:53:15;;;;;;;7.93;4.88;;;8.90;55.00;;;;;;5075001;28;20020;-69
2021/04/08 08:55:42;;;;;;;8.85;4.45;;;8.80;55.30;;;;;;5075078;28;20023;-69
2021/04/08 08:58:08;;;;;;;6.18;4.53;;;8.80;55.10;;;;;;5090532;28;20024;-69
2021/04/08 09:00:34;;;;;;;8.50;4.97;;;8.80;55.70;;;;;;5095350;28;20051;-70
2021/04/08 09:03:01;;;;;;;7.60;4.88;;;8.80;55.90;;;;;;5093675;28;20078;-70
2021/04/08 09:05:30;;;;;;;10.27;5.53;;;8.70;55.50;;;;;;5073733;28;20118;-68
2021/04/08 09:08:04;;;;;;;9.23;5.15;;;8.80;55.40;;;;;;5115745;28;20168;-68
2021/04/08 09:10:34;;;;;;;6.65;4.40;;;8.80;55.70;;;;;;5099643;28;20051;-69
2021/04/08 09:13:00;;;;;;;10.73;4.90;;;8.90;56.60;;;;;;5094407;28;20126;-69
2021/04/08 09:15:26;;;;;;;11.40;5.40;;;9.10;57.40;;;;;;5090330;28;20388;-68
2021/04/08 09:17:57;;;;;;;19.52;5.30;;;9.30;57.40;;;;;;5094865;28;20020;-70
2021/04/08 09:20:23;;;;;;;8.48;5.20;;;9.50;57.60;;;;;;5094236;28;20473;-69
2021/04/08 09:22:53;;;;;;;7.85;4.65;;;9.70;56.40;;;;;;5085842;28;20040;-69
2021/04/08 09:25:20;;;;;;;5.47;4.25;;;9.90;56.10;;;;;;5083894;28;20035;-69
2021/04/08 09:27:56;;;;;;;6.90;5.03;;;10.00;55.50;;;;;;5091147;28;20039;-69
2021/04/08 09:33:15;;;;;;;6.88;4.30;;;10.20;54.10;;;;;;5094922;28;20034;-69
2021/04/08 09:35:41;;;;;;;8.90;4.68;;;10.20;53.20;;;;;;5079863;28;20472;-70
2021/04/08 09:38:10;;;;;;;7.97;4.55;;;10.30;53.20;;;;;;5089181;28;20016;-69
2021/04/08 09:40:45;;;;;;;16.48;4.60;;;10.30;52.80;;;;;;5088435;28;20107;-69
2021/04/08 09:43:16;;;;;;;8.02;4.30;;;10.30;53.10;;;;;;5078178;28;20489;-70
2021/04/08 09:45:47;;;;;;;7.63;4.40;;;10.40;53.60;;;;;;5094708;28;20020;-69
2021/04/08 09:48:19;;;;;;;7.05;3.50;;;10.50;52.20;;;;;;5075299;28;20119;-69
2021/04/08 09:50:59;;;;;;;7.40;3.95;;;10.50;50.90;;;;;;5081492;28;20025;-70
2021/04/08 09:53:53;;;;;;;11.35;4.15;;;10.60;49.40;;;;;;5080308;28;20031;-70
2021/04/08 09:56:19;;;;;;;11.32;4.78;;;10.60;49.30;;;;;;5060578;28;20021;-70
2021/04/08 09:58:56;;;;;;;7.35;4.18;;;10.70;50.10;;;;;;5092068;28;20024;-70
2021/04/08 10:01:22;;;;;;;5.93;3.60;;;10.80;51.00;;;;;;5086722;28;20030;-70
2021/04/08 10:03:48;;;;;;;8.45;3.92;;;10.90;50.20;;;;;;5095001;28;20024;-70
2021/04/08 10:06:24;;;;;;;8.82;4.20;;;11.00;51.20;;;;;;5094997;28;20074;-70
2021/04/08 10:08:51;;;;;;;11.60;5.63;;;11.20;50.30;;;;;;5094402;28;20059;-69
2021/04/08 10:11:31;;;;;;;7.95;4.20;;;11.30;48.70;;;;;;5092361;28;20031;-69
2021/04/08 10:13:57;;;;;;;6.75;3.75;;;11.30;48.10;;;;;;5092830;28;20435;-68
2021/04/08 10:16:23;;;;;;;9.13;3.60;;;11.30;47.90;;;;;;5091085;28;20381;-68
2021/04/08 10:19:00;;;;;;;5.97;3.55;;;11.20;46.70;;;;;;5084084;28;20024;-69
2021/04/08 10:21:26;;;;;;;8.52;4.32;;;11.10;46.70;;;;;;5067453;28;20024;-67
2021/04/08 10:23:53;;;;;;;10.25;3.78;;;11.00;46.20;;;;;;5090944;28;20032;-68
2021/04/08 10:26:25;;;;;;;13.88;4.35;;;10.90;47.10;;;;;;5074378;28;20024;-67
2021/04/08 10:28:56;;;;;;;9.18;3.50;;;10.70;47.60;;;;;;5074357;28;20031;-67
2021/04/08 10:31:36;;;;;;;8.43;4.03;;;10.60;47.60;;;;;;5074455;28;20389;-68
2021/04/08 10:34:13;;;;;;;6.05;3.38;;;10.40;47.50;;;;;;5081668;28;20031;-69
2021/04/08 10:36:43;;;;;;;8.40;3.97;;;10.30;49.00;;;;;;5091111;28;20065;-68
2021/04/08 10:39:14;;;;;;;11.98;4.10;;;10.20;49.10;;;;;;5093786;28;20028;-68
2021/04/08 10:41:56;;;;;;;5.38;3.10;;;10.20;49.60;;;;;;5071097;28;20054;-68
2021/04/08 10:44:30;;;;;;;6.47;3.50;;;10.30;51.40;;;;;;5094179;28;20044;-68
2021/04/08 10:47:25;;;;;;;6.40;3.47;;;10.50;52.80;;;;;;5093636;28;20107;-69
2021/04/08 10:49:55;;;;;;;5.45;3.33;;;10.70;51.40;;;;;;5094066;28;20044;-68
2021/04/08 10:52:22;;;;;;;13.90;4.40;;;10.80;50.80;;;;;;5094307;28;20023;-67
2021/04/08 10:54:53;;;;;;;8.75;3.50;;;11.00;50.40;;;;;;5082707;28;20033;-69
2021/04/08 10:57:20;;;;;;;5.28;3.55;;;11.10;49.90;;;;;;5055845;28;20028;-67
2021/04/08 10:59:48;;;;;;;13.18;4.00;;;11.20;50.50;;;;;;5073657;28;20466;-68
2021/04/08 11:02:21;;;;;;;11.13;3.80;;;11.20;49.90;;;;;;5073912;28;20031;-67
2021/04/08 11:04:47;;;;;;;11.50;3.65;;;11.30;49.40;;;;;;5073657;28;20078;-68
2021/04/08 11:07:13;;;;;;;9.05;3.85;;;11.40;48.30;;;;;;5073701;28;20028;-67
2021/04/08 11:09:39;;;;;;;11.07;3.67;;;11.40;47.70;;;;;;5073513;28;20029;-68
2021/04/08 11:12:15;;;;;;;11.60;4.25;;;11.30;46.20;;;;;;5072384;28;20359;-67
2021/04/08 11:15:03;;;;;;;5.25;2.97;;;11.20;45.90;;;;;;5073787;28;20122;-67
2021/04/08 11:17:32;;;;;;;8.15;3.97;;;11.10;46.90;;;;;;5093762;28;20382;-69
2021/04/08 11:19:58;;;;;;;6.80;3.33;;;11.00;48.60;;;;;;5075570;28;20024;-68
2021/04/08 11:22:29;;;;;;;7.32;3.17;;;11.00;49.20;;;;;;5075362;28;20024;-67
2021/04/08 11:24:57;;;;;;;9.20;3.28;;;11.00;49.70;;;;;;5074958;28;20031;-69
2021/04/08 11:27:36;;;;;;;4.97;3.53;;;11.10;50.20;;;;;;5093386;28;20097;-69
2021/04/08 11:30:04;;;;;;;6.13;3.70;;;11.20;49.80;;;;;;5093402;28;20476;-68
2021/04/08 11:32:30;;;;;;;6.32;3.90;;;11.20;50.30;;;;;;5093097;28;20051;-67
2021/04/08 11:34:58;;;;;;;7.70;3.55;;;11.30;50.20;;;;;;5093259;28;20078;-69
2021/04/08 11:37:37;;;;;;;14.05;3.47;;;11.20;49.20;;;;;;5093246;28;20024;-69
2021/04/08 11:40:08;;;;;;;7.22;3.03;;;11.10;48.80;;;;;;5093284;28;20028;-70
2021/04/08 11:42:39;;;;;;;6.47;2.90;;;11.00;48.30;;;;;;5092593;28;20020;-68
2021/04/08 11:45:26;;;;;;;7.50;3.13;;;10.90;47.80;;;;;;5092980;28;20070;-69
2021/04/08 11:48:06;;;;;;;7.35;3.30;;;10.70;47.60;;;;;;5093212;28;20531;-68
2021/04/08 11:50:47;;;;;;;5.35;3.13;;;10.70;49.00;;;;;;5093093;28;20036;-70
2021/04/08 11:53:34;;;;;;;4.30;2.63;;;10.80;49.50;;;;;;5083552;28;20425;-69
2021/04/08 11:56:00;;;;;;;6.97;3.25;;;11.00;50.20;;;;;;5072998;28;20017;-70
2021/04/08 11:58:33;;;;;;;11.25;3.33;;;11.10;49.20;;;;;;5072933;28;20028;-68
2021/04/08 12:01:19;;;;;;;7.28;3.50;;;11.30;51.10;;;;;;5072961;28;20021;-69
2021/04/08 12:03:47;;;;;;;8.10;3.60;;;11.40;50.40;;;;;;5072693;28;20025;-69
2021/04/08 12:06:17;;;;;;;7.30;4.70;;;11.40;49.40;;;;;;5072842;28;20033;-68
2021/04/08 12:08:49;;;;;;;7.05;3.55;;;11.30;47.90;;;;;;5072777;28;20074;-66
2021/04/08 12:11:16;;;;;;;10.30;4.85;;;11.10;47.70;;;;;;5072623;28;20021;-66
2021/04/08 12:13:45;;;;;;;4.65;3.33;;;10.90;48.40;;;;;;5072723;28;20078;-66
2021/04/08 12:16:25;;;;;;;8.00;4.28;;;10.70;49.60;;;;;;5067524;28;20024;-67
2021/04/08 12:18:51;;;;;;;6.53;4.13;;;10.50;50.20;;;;;;5092726;28;20032;-67
2021/04/08 12:21:19;;;;;;;6.95;4.03;;;10.40;50.80;;;;;;5092858;28;20027;-67
2021/04/08 12:23:45;;;;;;;5.85;4.03;;;10.30;52.20;;;;;;5092928;28;20102;-67
2021/04/08 12:26:11;;;;;;;9.90;4.75;;;10.40;52.80;;;;;;5074662;28;20028;-70
2021/04/08 12:28:40;;;;;;;7.25;4.43;;;10.40;52.60;;;;;;5092777;28;20036;-67
2021/04/08 12:31:08;;;;;;;8.45;4.50;;;10.50;53.20;;;;;;5092696;28;20027;-67
2021/04/08 12:33:36;;;;;;;10.75;4.43;;;10.60;53.30;;;;;;5074526;28;20020;-66
2021/04/08 12:36:10;;;;;;;7.32;3.85;;;10.60;53.10;;;;;;5092670;28;20461;-67
2021/04/08 12:38:36;;;;;;;12.18;4.57;;;10.70;52.80;;;;;;5092644;28;20025;-67
2021/04/08 12:41:03;;;;;;;6.32;4.03;;;10.80;53.30;;;;;;5092679;28;20024;-67
2021/04/08 12:43:30;;;;;;;11.30;4.25;;;10.90;53.10;;;;;;5074389;28;20055;-66
2021/04/08 12:45:57;;;;;;;9.13;3.92;;;11.00;53.00;;;;;;5092365;28;20532;-68
2021/04/08 12:48:23;;;;;;;7.68;4.25;;;11.20;51.70;;;;;;5092243;28;20032;-67
2021/04/08 12:50:50;;;;;;;9.77;3.85;;;11.20;50.50;;;;;;5091254;28;20036;-67
2021/04/08 12:53:19;;;;;;;8.77;4.03;;;11.30;51.00;;;;;;5073561;28;20470;-66
2021/04/08 12:55:45;;;;;;;10.82;3.92;;;11.30;51.10;;;;;;5076053;28;20466;-66
2021/04/08 12:58:11;;;;;;;6.40;3.47;;;11.40;50.20;;;;;;5076063;28;20024;-67
2021/04/08 13:00:38;;;;;;;11.13;3.75;;;11.40;49.70;;;;;;5058041;28;20035;-67
2021/04/08 13:03:05;;;;;;;7.43;4.20;;;11.50;49.80;;;;;;5075918;28;20091;-67
2021/04/08 13:05:31;;;;;;;6.70;4.32;;;11.60;49.60;;;;;;5075907;28;20021;-66